createdAt,value
2024-01-16T00:00:55.176Z,73.20
2024-01-16T00:03:23.209Z,74.40
2024-01-16T00:05:50.117Z,79.28
2024-01-16T00:08:16.825Z,83.70
2024-01-16T00:10:43.655Z,73.54
2024-01-16T00:13:10.345Z,85.47
2024-01-16T00:15:37.005Z,85.48
2024-01-16T00:18:04.016Z,85.97
2024-01-16T00:20:32.003Z,81.53
2024-01-16T00:22:58.653Z,74.36
2024-01-16T00:25:25.325Z,79.98
2024-01-16T00:27:51.959Z,85.43
2024-01-16T00:30:19.164Z,85.29
2024-01-16T00:32:45.825Z,85.59
2024-01-16T00:35:12.550Z,85.81
2024-01-16T00:37:40.734Z,85.69
2024-01-16T00:40:09.966Z,85.41
2024-01-16T00:42:36.752Z,78.50
2024-01-16T00:45:03.610Z,70.44
2024-01-16T00:47:30.368Z,85.49
2024-01-16T00:49:57.083Z,85.85
2024-01-16T00:52:23.769Z,85.10
2024-01-16T00:54:51.752Z,85.24
2024-01-16T00:57:20.587Z,85.45
2024-01-16T00:59:47.794Z,85.17
2024-01-16T01:02:15.231Z,83.90
2024-01-16T01:04:44.987Z,75.07
2024-01-16T01:07:14.526Z,85.13
2024-01-16T01:09:41.582Z,85.31
2024-01-16T01:12:09.657Z,85.95
2024-01-16T01:14:36.428Z,85.28
2024-01-16T01:17:03.508Z,85.85
2024-01-16T01:19:30.294Z,85.57
2024-01-16T01:21:56.969Z,85.44
2024-01-16T01:24:23.631Z,85.59
2024-01-16T01:26:50.249Z,85.58
2024-01-16T01:29:18.525Z,80.69
2024-01-16T01:31:48.614Z,85.61
2024-01-16T01:34:15.551Z,85.25
2024-01-16T01:36:42.440Z,85.56
2024-01-16T01:39:09.054Z,85.53
2024-01-16T01:41:35.828Z,84.94
2024-01-16T01:44:02.530Z,85.62
2024-01-16T01:46:33.030Z,85.10
2024-01-16T01:48:59.890Z,80.00
2024-01-16T01:51:26.650Z,85.43
2024-01-16T01:53:54.070Z,85.44
2024-01-16T01:56:21.927Z,85.30
2024-01-16T01:58:53.391Z,84.26
2024-01-16T02:01:22.393Z,75.22
2024-01-16T02:03:52.184Z,86.30
2024-01-16T02:06:19.402Z,85.61
2024-01-16T02:08:46.669Z,85.36
2024-01-16T02:11:13.509Z,85.08
2024-01-16T02:13:40.211Z,85.00
2024-01-16T02:16:07.239Z,85.51
2024-01-16T02:18:33.959Z,85.37
2024-01-16T02:21:06.896Z,85.13
2024-01-16T02:23:35.632Z,85.46
2024-01-16T02:26:03.990Z,84.89
2024-01-16T02:28:30.631Z,85.25
2024-01-16T02:30:57.698Z,85.13
2024-01-16T02:33:24.697Z,84.93
2024-01-16T02:35:51.504Z,85.31
2024-01-16T02:38:18.281Z,85.46
2024-01-16T02:40:46.793Z,85.20
2024-01-16T02:43:13.424Z,84.99
2024-01-16T02:45:40.021Z,84.82
2024-01-16T02:48:07.311Z,85.11
2024-01-16T02:50:34.369Z,84.76
2024-01-16T02:53:01.040Z,84.21
2024-01-16T02:55:27.690Z,85.12
2024-01-16T02:57:55.658Z,84.85
2024-01-16T03:00:23.817Z,85.09
2024-01-16T03:02:50.504Z,84.94
2024-01-16T03:05:17.414Z,85.40
2024-01-16T03:07:44.104Z,84.70
2024-01-16T03:10:10.818Z,85.20
2024-01-16T03:12:37.440Z,84.57
2024-01-16T03:15:06.909Z,84.87
2024-01-16T03:17:33.572Z,84.91
2024-01-16T03:20:00.243Z,84.95
2024-01-16T03:22:26.877Z,84.77
2024-01-16T03:24:53.514Z,84.90
2024-01-16T03:27:21.094Z,84.88
2024-01-16T03:29:47.845Z,85.18
2024-01-16T03:32:16.032Z,84.55
2024-01-16T03:34:42.714Z,84.71
2024-01-16T03:37:09.609Z,85.07
2024-01-16T03:39:36.374Z,84.55
2024-01-16T03:42:03.121Z,83.98
2024-01-16T03:44:29.766Z,84.68
2024-01-16T03:46:56.419Z,84.67
2024-01-16T03:49:24.644Z,84.88
2024-01-16T03:51:52.648Z,84.57
2024-01-16T03:54:19.262Z,84.52
2024-01-16T03:56:45.915Z,84.68
2024-01-16T03:59:12.597Z,84.47
2024-01-16T04:01:39.200Z,84.51
2024-01-16T04:04:08.733Z,85.06
2024-01-16T04:06:36.836Z,84.42
2024-01-16T04:09:04.172Z,84.44
2024-01-16T04:11:31.008Z,84.24
2024-01-16T04:13:57.803Z,84.66
2024-01-16T04:16:24.556Z,84.39
2024-01-16T04:18:51.262Z,84.32
2024-01-16T04:21:20.526Z,84.56
2024-01-16T04:23:48.933Z,84.26
2024-01-16T04:26:15.725Z,85.00
2024-01-16T04:28:43.869Z,84.54
2024-01-16T04:31:12.911Z,84.33
2024-01-16T04:33:40.326Z,84.96
2024-01-16T04:36:08.132Z,84.60
2024-01-16T04:38:34.851Z,84.31
2024-01-16T04:41:03.923Z,84.50
2024-01-16T04:43:30.549Z,84.45
2024-01-16T04:45:58.215Z,84.49
2024-01-16T04:48:25.941Z,84.36
2024-01-16T04:50:52.704Z,84.31
2024-01-16T04:53:19.420Z,84.42
2024-01-16T04:55:46.155Z,84.80
2024-01-16T04:58:14.220Z,84.51
2024-01-16T05:00:40.870Z,84.57
2024-01-16T05:03:07.516Z,84.84
2024-01-16T05:05:34.258Z,84.33
2024-01-16T05:08:02.209Z,84.27
2024-01-16T05:10:28.888Z,84.55
2024-01-16T05:12:55.488Z,84.48
2024-01-16T05:15:23.791Z,84.35
2024-01-16T05:17:50.637Z,84.44
2024-01-16T05:20:17.678Z,84.12
2024-01-16T05:22:44.384Z,84.13
2024-01-16T05:25:11.198Z,84.18
2024-01-16T05:27:37.898Z,83.94
2024-01-16T05:30:05.524Z,84.16
2024-01-16T05:32:33.701Z,84.03
2024-01-16T05:35:00.409Z,84.42
2024-01-16T05:37:27.037Z,84.39
2024-01-16T05:39:53.680Z,84.64
2024-01-16T05:42:20.353Z,84.59
2024-01-16T05:44:47.046Z,84.10
2024-01-16T05:47:13.738Z,84.45
2024-01-16T05:49:43.010Z,84.22
2024-01-16T05:52:09.867Z,84.20
2024-01-16T05:54:36.557Z,84.43
2024-01-16T05:57:03.766Z,84.29
2024-01-16T05:59:30.473Z,84.02
2024-01-16T06:01:57.135Z,84.71
2024-01-16T06:04:23.834Z,84.15
2024-01-16T06:06:51.904Z,84.04
2024-01-16T06:09:19.563Z,84.09
2024-01-16T06:11:46.425Z,84.46
2024-01-16T06:14:13.835Z,83.86
2024-01-16T06:16:40.598Z,84.14
2024-01-16T06:19:08.943Z,84.37
2024-01-16T06:21:35.603Z,84.42
2024-01-16T06:24:03.817Z,84.64
2024-01-16T06:26:30.472Z,84.82
2024-01-16T06:28:57.126Z,84.57
2024-01-16T06:31:25.782Z,83.90
2024-01-16T06:33:52.649Z,84.24
2024-01-16T06:36:19.313Z,84.05
2024-01-16T06:38:46.068Z,84.36
2024-01-16T06:41:14.161Z,84.09
2024-01-16T06:43:40.779Z,84.09
2024-01-16T06:46:07.448Z,84.05
2024-01-16T06:48:36.918Z,84.03
2024-01-16T06:51:03.937Z,84.08
2024-01-16T06:53:30.632Z,84.51
2024-01-16T06:55:57.345Z,84.67
2024-01-16T06:58:25.319Z,84.03
2024-01-16T07:00:51.988Z,78.04
2024-01-16T07:03:19.629Z,83.88
2024-01-16T07:05:46.634Z,84.38
2024-01-16T07:08:13.420Z,84.30
2024-01-16T07:10:40.048Z,84.28
2024-01-16T07:13:08.468Z,84.17
2024-01-16T07:15:36.474Z,83.49
2024-01-16T07:18:03.752Z,83.71
2024-01-16T07:20:30.515Z,84.16
2024-01-16T07:22:57.214Z,84.57
2024-01-16T07:25:23.998Z,84.12
2024-01-16T07:27:50.970Z,84.26
2024-01-16T07:30:17.892Z,84.27
2024-01-16T07:32:46.224Z,83.76
2024-01-16T07:35:13.067Z,84.34
2024-01-16T07:37:40.017Z,84.30
2024-01-16T07:40:10.597Z,84.08
2024-01-16T07:42:37.338Z,83.83
2024-01-16T07:45:05.527Z,84.27
2024-01-16T07:47:33.020Z,83.29
2024-01-16T07:50:02.625Z,83.55
2024-01-16T07:52:30.508Z,84.12
2024-01-16T07:54:57.139Z,84.12
2024-01-16T07:57:23.817Z,83.80
2024-01-16T07:59:50.544Z,83.54
2024-01-16T08:02:18.406Z,83.70
2024-01-16T08:04:45.142Z,84.00
2024-01-16T08:07:13.096Z,83.94
2024-01-16T08:09:39.802Z,84.07
2024-01-16T08:12:07.499Z,83.65
2024-01-16T08:14:34.300Z,83.84
2024-01-16T08:17:00.940Z,83.90
2024-01-16T08:19:27.702Z,83.67
2024-01-16T08:21:54.479Z,83.78
2024-01-16T08:24:22.490Z,84.06
2024-01-16T08:26:49.156Z,81.91
2024-01-16T08:29:15.800Z,83.18
2024-01-16T08:31:42.492Z,83.38
2024-01-16T08:34:09.313Z,83.04
2024-01-16T08:36:36.112Z,83.48
2024-01-16T08:39:02.752Z,83.11
2024-01-16T08:41:31.043Z,83.49
2024-01-16T08:43:57.816Z,80.27
2024-01-16T08:46:24.477Z,83.04
2024-01-16T08:48:51.249Z,82.98
2024-01-16T08:51:17.923Z,83.42
2024-01-16T08:53:44.665Z,83.40
2024-01-16T08:56:13.351Z,83.62
2024-01-16T08:58:41.793Z,83.71
2024-01-16T09:01:08.762Z,82.99
2024-01-16T09:03:35.829Z,83.78
2024-01-16T09:06:03.346Z,68.84
2024-01-16T09:08:30.516Z,69.06
2024-01-16T09:10:57.895Z,77.76
2024-01-16T09:13:24.702Z,81.04
2024-01-16T09:15:52.688Z,81.90
2024-01-16T09:18:19.593Z,76.38
2024-01-16T09:20:46.447Z,78.39
2024-01-16T09:23:13.857Z,83.70
2024-01-16T09:25:40.602Z,81.18
2024-01-16T09:28:07.738Z,83.25
2024-01-16T09:30:34.652Z,82.56
2024-01-16T09:33:04.385Z,82.67
2024-01-16T09:35:31.221Z,68.22
2024-01-16T09:37:57.894Z,72.51
2024-01-16T09:40:24.528Z,83.80
2024-01-16T09:42:51.299Z,58.97
2024-01-16T09:45:21.631Z,59.04
2024-01-16T09:47:53.832Z,64.39
2024-01-16T09:50:23.499Z,68.69
2024-01-16T09:52:50.480Z,68.80
2024-01-16T09:55:17.407Z,76.76
2024-01-16T09:57:47.098Z,78.66
2024-01-16T10:00:14.450Z,80.35
2024-01-16T10:02:42.102Z,81.68
2024-01-16T10:05:10.336Z,81.76
2024-01-16T10:07:39.938Z,70.27
2024-01-16T10:10:07.803Z,78.85
2024-01-16T10:12:34.711Z,80.44
2024-01-16T10:15:01.846Z,82.04
2024-01-16T10:17:37.482Z,82.61
2024-01-16T10:20:06.012Z,82.06
2024-01-16T10:22:33.124Z,82.24
2024-01-16T10:25:08.718Z,82.95
2024-01-16T10:27:36.183Z,82.96
2024-01-16T10:30:04.932Z,82.19
2024-01-16T10:32:34.192Z,82.24
2024-01-16T10:35:05.879Z,82.60
2024-01-16T10:37:42.548Z,83.68
2024-01-16T10:40:12.073Z,82.97
2024-01-16T10:42:39.492Z,82.79
2024-01-16T10:45:07.244Z,83.53
2024-01-16T10:47:38.211Z,82.88
2024-01-16T10:50:07.243Z,83.30
2024-01-16T10:52:35.684Z,83.29
2024-01-16T10:55:06.103Z,83.40
2024-01-16T10:57:35.035Z,83.25
2024-01-16T11:00:05.794Z,84.67
2024-01-16T11:02:38.629Z,81.35
2024-01-16T11:05:07.130Z,80.09
2024-01-16T11:07:35.697Z,70.73
2024-01-16T11:10:03.549Z,70.27
2024-01-16T11:12:31.589Z,66.45
2024-01-16T11:15:02.360Z,67.47
2024-01-16T11:17:31.975Z,68.50
2024-01-16T11:20:13.237Z,66.25
2024-01-16T11:22:47.339Z,67.11
2024-01-16T11:25:15.469Z,66.14
2024-01-16T11:27:43.195Z,66.07
2024-01-16T11:30:12.668Z,66.32
2024-01-16T11:32:41.717Z,64.08
2024-01-16T11:35:09.311Z,64.83
2024-01-16T11:37:38.871Z,63.94
2024-01-16T11:40:25.629Z,67.32
2024-01-16T11:42:54.351Z,73.65
2024-01-16T11:45:51.455Z,69.04
2024-01-16T11:48:19.834Z,76.29
2024-01-16T11:50:47.283Z,78.05
2024-01-16T11:53:41.649Z,78.58
2024-01-16T11:56:38.160Z,78.72
2024-01-16T11:59:39.905Z,70.11
2024-01-16T12:02:15.337Z,65.02
2024-01-16T12:04:43.103Z,65.02
2024-01-16T12:07:10.037Z,69.72
2024-01-16T12:09:36.715Z,62.58
2024-01-16T12:12:04.356Z,62.33
2024-01-16T12:14:31.462Z,62.33
2024-01-16T12:17:12.131Z,64.43
2024-01-16T12:19:41.447Z,62.98
2024-01-16T12:22:10.801Z,66.73
2024-01-16T12:24:38.023Z,68.09
2024-01-16T12:27:05.545Z,63.44
2024-01-16T12:29:32.663Z,69.77
2024-01-16T12:32:11.012Z,63.13
2024-01-16T12:34:46.854Z,64.46
2024-01-16T12:37:13.942Z,59.28
2024-01-16T12:39:42.580Z,69.55
2024-01-16T12:42:11.009Z,73.20
2024-01-16T12:44:37.734Z,71.68
2024-01-16T12:47:05.123Z,68.52
2024-01-16T12:49:33.456Z,66.38
2024-01-16T12:52:16.328Z,64.45
2024-01-16T12:54:43.014Z,73.27
2024-01-16T12:57:14.907Z,74.17
2024-01-16T12:59:41.701Z,66.56
2024-01-16T13:02:08.458Z,70.70
2024-01-16T13:04:36.538Z,68.29
2024-01-16T13:07:04.523Z,73.30
2024-01-16T13:09:31.606Z,62.01
2024-01-16T13:11:59.798Z,68.00
2024-01-16T13:14:27.078Z,66.01
2024-01-16T13:16:57.844Z,66.75
2024-01-16T13:19:25.219Z,66.87
2024-01-16T13:21:53.751Z,69.09
2024-01-16T13:24:22.915Z,77.50
2024-01-16T13:26:50.152Z,80.08
2024-01-16T13:29:17.210Z,79.28
2024-01-16T13:31:44.857Z,81.14
2024-01-16T13:34:11.781Z,81.03
2024-01-16T13:36:53.886Z,79.76
2024-01-16T13:39:26.623Z,79.72
2024-01-16T13:41:53.640Z,80.82
2024-01-16T13:44:20.470Z,81.15
2024-01-16T13:46:58.098Z,80.97
2024-01-16T13:49:34.595Z,81.33
2024-01-16T13:52:01.756Z,81.30
2024-01-16T13:54:29.760Z,81.63
2024-01-16T13:57:03.395Z,81.62
2024-01-16T13:59:34.508Z,81.22
2024-01-16T14:02:03.033Z,81.71
2024-01-16T14:04:29.774Z,81.68
2024-01-16T14:07:10.331Z,81.77
2024-01-16T14:09:43.129Z,81.59
2024-01-16T14:12:10.954Z,82.58
2024-01-16T14:14:39.703Z,82.11
2024-01-16T14:17:06.629Z,82.05
2024-01-16T14:19:35.675Z,82.38
2024-01-16T14:22:02.500Z,82.81
2024-01-16T14:24:29.085Z,82.77
2024-01-16T14:27:00.015Z,82.63
2024-01-16T14:29:28.079Z,82.98
2024-01-16T14:31:57.394Z,82.83
2024-01-16T14:34:24.745Z,82.99
2024-01-16T14:36:51.785Z,83.07
2024-01-16T14:39:23.237Z,83.03
2024-01-16T14:41:50.076Z,83.17
2024-01-16T14:44:18.237Z,82.87
2024-01-16T14:46:47.043Z,83.29
2024-01-16T14:49:15.436Z,83.19
2024-01-16T14:51:42.406Z,83.22
2024-01-16T14:54:10.018Z,83.05
2024-01-16T14:56:36.858Z,82.92
2024-01-16T14:59:04.138Z,83.20
2024-01-16T15:01:32.247Z,83.43
2024-01-16T15:03:59.468Z,82.97
2024-01-16T15:06:28.005Z,82.93
2024-01-16T15:08:55.432Z,82.85
2024-01-16T15:11:22.713Z,83.46
2024-01-16T15:13:50.537Z,83.01
2024-01-16T15:16:18.063Z,83.49
2024-01-16T15:18:46.285Z,83.31
2024-01-16T15:21:13.150Z,83.09
2024-01-16T15:23:39.835Z,83.17
2024-01-16T15:26:07.290Z,83.38
2024-01-16T15:28:34.459Z,83.39
2024-01-16T15:31:07.925Z,83.05
2024-01-16T15:33:37.977Z,83.34
2024-01-16T15:36:07.107Z,82.94
2024-01-16T15:38:33.766Z,83.58
2024-01-16T15:41:00.444Z,83.17
2024-01-16T15:43:27.119Z,83.22
2024-01-16T15:45:54.126Z,83.01
2024-01-16T15:48:20.893Z,83.14
2024-01-16T15:50:47.695Z,83.24
2024-01-16T15:53:17.332Z,83.26
2024-01-16T15:55:44.462Z,82.72
2024-01-16T15:58:11.521Z,83.04
2024-01-16T16:00:38.415Z,83.03
2024-01-16T16:03:06.478Z,83.10
2024-01-16T16:05:33.536Z,83.06
2024-01-16T16:08:00.363Z,83.24
2024-01-16T16:10:28.633Z,82.87
2024-01-16T16:12:55.480Z,82.91
2024-01-16T16:15:22.975Z,83.31
2024-01-16T16:17:49.975Z,83.20
2024-01-16T16:20:16.796Z,82.78
2024-01-16T16:22:45.363Z,82.89
2024-01-16T16:25:13.059Z,82.91
2024-01-16T16:27:41.006Z,82.95
2024-01-16T16:30:09.024Z,83.05
2024-01-16T16:32:35.850Z,82.91
2024-01-16T16:35:02.614Z,82.89
2024-01-16T16:37:29.257Z,82.91
2024-01-16T16:39:55.889Z,83.00
2024-01-16T16:42:22.670Z,82.88
2024-01-16T16:44:50.676Z,82.78
2024-01-16T16:47:18.193Z,82.88
2024-01-16T16:49:44.960Z,82.60
2024-01-16T16:52:11.591Z,82.78
2024-01-16T16:54:38.213Z,82.99
2024-01-16T16:57:04.894Z,82.19
2024-01-16T16:59:31.791Z,82.75
2024-01-16T17:02:00.329Z,83.37
2024-01-16T17:04:27.380Z,83.55
2024-01-16T17:06:56.561Z,82.67
2024-01-16T17:09:23.505Z,82.63
2024-01-16T17:11:50.417Z,82.56
2024-01-16T17:14:18.032Z,82.77
2024-01-16T17:16:44.831Z,82.37
2024-01-16T17:19:13.524Z,82.35
2024-01-16T17:21:40.606Z,82.41
2024-01-16T17:24:07.799Z,82.41
2024-01-16T17:26:35.643Z,82.70
2024-01-16T17:29:02.482Z,81.99
2024-01-16T17:31:29.431Z,81.27
2024-01-16T17:33:57.065Z,81.50
2024-01-16T17:36:25.422Z,81.87
2024-01-16T17:38:57.182Z,81.83
2024-01-16T17:41:27.304Z,81.55
2024-01-16T17:43:54.997Z,80.80
2024-01-16T17:46:21.943Z,80.49
2024-01-16T17:48:49.012Z,80.41
2024-01-16T17:51:15.790Z,80.76
2024-01-16T17:53:44.813Z,80.68
2024-01-16T17:56:13.775Z,81.15
2024-01-16T17:58:40.636Z,80.97
2024-01-16T18:01:12.321Z,81.11
2024-01-16T18:03:43.311Z,81.18
2024-01-16T18:06:12.919Z,81.24
2024-01-16T18:08:39.916Z,83.33
2024-01-16T18:11:08.015Z,82.53
2024-01-16T18:13:35.581Z,74.25
2024-01-16T18:16:06.092Z,81.52
2024-01-16T18:18:34.059Z,79.95
2024-01-16T18:21:01.253Z,81.25
2024-01-16T18:23:28.018Z,81.15
2024-01-16T18:28:22.770Z,81.01
2024-01-16T18:30:49.682Z,81.08
2024-01-16T18:33:16.616Z,81.12
2024-01-16T18:35:43.502Z,81.25
2024-01-16T18:38:10.603Z,81.00
2024-01-16T18:40:37.239Z,81.13
2024-01-16T18:43:05.001Z,81.34
2024-01-16T18:45:32.968Z,81.59
2024-01-16T18:47:59.684Z,80.91
2024-01-16T18:50:26.515Z,80.99
2024-01-16T18:52:55.113Z,80.98
2024-01-16T18:55:21.750Z,80.92
2024-01-16T18:57:48.488Z,72.60
2024-01-16T19:00:15.737Z,80.21
2024-01-16T19:02:44.808Z,71.65
2024-01-16T19:05:15.083Z,82.10
2024-01-16T19:07:42.061Z,81.65
2024-01-16T19:10:13.503Z,80.88
2024-01-16T19:12:42.517Z,81.77
2024-01-16T19:15:10.653Z,81.25
2024-01-16T19:17:37.417Z,80.88
2024-01-16T19:20:10.853Z,81.24
2024-01-16T19:22:39.453Z,81.59
2024-01-16T19:25:08.390Z,80.44
2024-01-16T19:27:36.124Z,80.73
2024-01-16T19:30:05.831Z,80.89
2024-01-16T19:32:32.854Z,80.94
2024-01-16T19:34:59.635Z,81.20
2024-01-16T19:37:27.665Z,65.40
2024-01-16T19:39:54.277Z,84.34
2024-01-16T19:42:20.911Z,82.67
2024-01-16T19:44:48.927Z,81.44
2024-01-16T19:47:15.557Z,81.32
2024-01-16T19:49:42.198Z,79.91
2024-01-16T19:52:09.405Z,83.92
2024-01-16T19:54:39.838Z,81.69
2024-01-16T19:57:07.671Z,71.80
2024-01-16T19:59:34.936Z,83.68
2024-01-16T20:02:01.817Z,81.55
2024-01-16T20:04:28.676Z,81.32
2024-01-16T20:06:55.786Z,81.93
2024-01-16T20:09:22.710Z,67.26
2024-01-16T20:11:51.241Z,85.04
2024-01-16T20:14:17.905Z,84.40
2024-01-16T20:16:44.612Z,82.04
2024-01-16T20:19:11.498Z,81.83
2024-01-16T20:21:38.388Z,81.79
2024-01-16T20:24:08.202Z,81.31
2024-01-16T20:26:35.682Z,81.29
2024-01-16T20:29:05.269Z,83.19
2024-01-16T20:31:33.052Z,65.98
2024-01-16T20:33:59.968Z,83.41
2024-01-16T20:36:26.716Z,78.68
2024-01-16T20:38:53.362Z,81.88
2024-01-16T20:41:20.045Z,81.14
2024-01-16T20:43:46.766Z,81.71
2024-01-16T20:46:15.810Z,81.11
2024-01-16T20:48:43.181Z,81.81
2024-01-16T20:51:13.058Z,68.15
2024-01-16T20:53:39.606Z,85.04
2024-01-16T20:56:06.564Z,82.18
2024-01-16T20:58:33.504Z,77.26
2024-01-16T21:01:00.230Z,70.23
2024-01-16T21:03:31.105Z,86.40
2024-01-16T21:05:59.040Z,82.93
2024-01-16T21:08:26.048Z,82.16
2024-01-16T21:10:52.762Z,83.26
2024-01-16T21:13:19.506Z,82.69
2024-01-16T21:15:47.064Z,72.44
2024-01-16T21:18:14.849Z,82.02
2024-01-16T21:20:43.108Z,82.18
2024-01-16T21:23:09.828Z,81.35
2024-01-16T21:25:36.473Z,73.69
2024-01-16T21:28:04.631Z,82.62
2024-01-16T21:30:31.361Z,81.92
2024-01-16T21:32:58.355Z,81.55
2024-01-16T21:35:25.062Z,80.10
2024-01-16T21:37:53.339Z,69.56
2024-01-16T21:40:20.852Z,87.23
2024-01-16T21:42:47.831Z,81.03
2024-01-16T21:45:15.188Z,83.40
2024-01-16T21:47:43.252Z,81.76
2024-01-16T21:50:13.426Z,81.63
2024-01-16T21:52:40.273Z,81.64
2024-01-16T21:55:08.935Z,81.07
2024-01-16T21:57:36.797Z,81.40
2024-01-16T22:00:05.778Z,81.39
2024-01-16T22:02:33.309Z,69.97
2024-01-16T22:05:00.141Z,83.95
2024-01-16T22:07:28.524Z,82.05
2024-01-16T22:09:55.141Z,81.24
2024-01-16T22:12:23.137Z,81.18
2024-01-16T22:14:54.544Z,77.80
2024-01-16T22:17:23.863Z,77.71
2024-01-16T22:19:50.590Z,85.50
2024-01-16T22:22:17.299Z,83.69
2024-01-16T22:24:43.937Z,82.31
2024-01-16T22:27:10.605Z,82.96
2024-01-16T22:29:38.892Z,80.38
2024-01-16T22:32:05.751Z,83.09
2024-01-16T22:34:32.500Z,82.08
2024-01-16T22:36:59.224Z,81.90
2024-01-16T22:39:27.789Z,69.95
2024-01-16T22:41:54.481Z,84.82
2024-01-16T22:44:23.211Z,83.21
2024-01-16T22:46:51.370Z,82.12
2024-01-16T22:49:18.116Z,81.92
2024-01-16T22:51:44.836Z,69.73
2024-01-16T22:54:11.580Z,79.19
2024-01-16T22:56:38.451Z,87.13
2024-01-16T22:59:05.474Z,84.04
2024-01-16T23:01:32.369Z,82.54
2024-01-16T23:04:00.808Z,82.30
2024-01-16T23:06:28.973Z,82.17
2024-01-16T23:08:56.034Z,83.21
2024-01-16T23:11:24.007Z,83.69
2024-01-16T23:13:51.116Z,82.54
2024-01-16T23:16:17.758Z,81.58
2024-01-16T23:18:45.808Z,82.49
2024-01-16T23:21:14.543Z,78.21
2024-01-16T23:23:43.398Z,82.47
2024-01-16T23:26:11.319Z,82.43
2024-01-16T23:28:38.845Z,81.72
2024-01-16T23:31:09.347Z,82.23
2024-01-16T23:33:36.403Z,82.33
2024-01-16T23:36:03.405Z,80.32
2024-01-16T23:38:31.739Z,82.73
2024-01-16T23:40:59.075Z,82.48
2024-01-16T23:43:28.490Z,76.82
2024-01-16T23:46:01.212Z,82.18
2024-01-16T23:48:28.071Z,72.47
2024-01-16T23:50:55.062Z,83.69
2024-01-16T23:53:21.804Z,83.72
2024-01-16T23:55:52.145Z,82.76
2024-01-16T23:58:18.873Z,73.46
